createdAt,value
2023-04-24T00:00:24.876Z,2.10
2023-04-24T00:02:52.040Z,2.20
2023-04-24T00:05:19.064Z,2.28
2023-04-24T00:07:46.313Z,2.05
2023-04-24T00:10:13.095Z,1.98
2023-04-24T00:12:41.230Z,2.42
2023-04-24T00:15:08.272Z,2.35
2023-04-24T00:17:35.368Z,2.20
2023-04-24T00:20:04.379Z,2.47
2023-04-24T00:22:31.926Z,2.28
2023-04-24T00:24:58.495Z,2.40
2023-04-24T00:27:25.159Z,2.08
2023-04-24T00:29:51.917Z,2.08
2023-04-24T00:32:19.315Z,2.17
2023-04-24T00:34:46.076Z,2.13
2023-04-24T00:37:12.705Z,2.22
2023-04-24T00:39:39.348Z,2.10
2023-04-24T00:42:07.499Z,2.28
2023-04-24T00:44:34.909Z,2.10
2023-04-24T00:47:02.171Z,2.00
2023-04-24T00:49:28.826Z,2.17
2023-04-24T00:51:55.279Z,2.20
2023-04-24T00:54:21.921Z,2.60
2023-04-24T00:56:48.546Z,1.98
2023-04-24T00:59:17.406Z,2.60
2023-04-24T01:01:44.240Z,2.30
2023-04-24T01:04:12.391Z,2.30
2023-04-24T01:06:44.154Z,2.30
2023-04-24T01:09:12.391Z,2.10
2023-04-24T01:11:39.124Z,2.85
2023-04-24T01:14:05.804Z,2.40
2023-04-24T01:16:32.341Z,2.47
2023-04-24T01:18:58.960Z,2.30
2023-04-24T01:21:28.840Z,2.50
2023-04-24T01:23:56.415Z,2.30
2023-04-24T01:26:23.431Z,2.13
2023-04-24T01:28:50.271Z,2.35
2023-04-24T01:31:16.976Z,2.13
2023-04-24T01:33:43.693Z,2.38
2023-04-24T01:36:11.622Z,2.38
2023-04-24T01:38:38.565Z,2.10
2023-04-24T01:41:05.290Z,2.20
2023-04-24T01:43:32.164Z,2.53
2023-04-24T01:45:58.912Z,2.58
2023-04-24T01:48:25.930Z,2.55
2023-04-24T01:50:52.481Z,2.10
2023-04-24T01:53:19.117Z,2.33
2023-04-24T01:55:45.840Z,2.22
2023-04-24T01:58:12.581Z,2.17
2023-04-24T02:00:39.206Z,2.42
2023-04-24T02:03:05.886Z,2.15
2023-04-24T02:05:32.666Z,2.30
2023-04-24T02:07:59.205Z,2.20
2023-04-24T02:10:26.363Z,2.40
2023-04-24T02:12:53.108Z,2.30
2023-04-24T02:15:19.617Z,1.95
2023-04-24T02:17:46.246Z,2.45
2023-04-24T02:20:12.822Z,2.05
2023-04-24T02:22:39.393Z,2.20
2023-04-24T02:25:06.390Z,2.28
2023-04-24T02:27:32.982Z,2.20
2023-04-24T02:29:59.686Z,2.47
2023-04-24T02:32:27.457Z,2.08
2023-04-24T02:34:54.129Z,2.13
2023-04-24T02:37:21.097Z,1.92
2023-04-24T02:39:47.737Z,2.00
2023-04-24T02:42:14.650Z,2.20
2023-04-24T02:44:42.024Z,1.90
2023-04-24T02:47:09.776Z,1.73
2023-04-24T02:49:36.389Z,2.10
2023-04-24T02:52:03.256Z,1.88
2023-04-24T02:54:29.782Z,2.05
2023-04-24T02:56:56.406Z,2.13
2023-04-24T02:59:23.005Z,1.92
2023-04-24T03:01:49.641Z,2.00
2023-04-24T03:04:16.803Z,2.10
2023-04-24T03:06:43.903Z,1.90
2023-04-24T03:09:10.607Z,1.75
2023-04-24T03:11:37.149Z,1.80
2023-04-24T03:14:03.996Z,2.00
2023-04-24T03:16:30.822Z,1.80
2023-04-24T03:18:57.457Z,1.70
2023-04-24T03:21:24.038Z,2.00
2023-04-24T03:23:50.868Z,1.45
2023-04-24T03:26:17.589Z,1.70
2023-04-24T03:28:44.296Z,1.50
2023-04-24T03:31:11.355Z,1.30
2023-04-24T03:33:37.982Z,1.70
2023-04-24T03:36:06.096Z,1.70
2023-04-24T03:38:32.902Z,1.75
2023-04-24T03:40:59.777Z,1.50
2023-04-24T03:43:28.448Z,1.50
2023-04-24T03:45:55.402Z,1.20
2023-04-24T03:48:21.996Z,1.50
2023-04-24T03:50:48.646Z,1.70
2023-04-24T03:53:15.371Z,1.45
2023-04-24T03:55:42.281Z,1.40
2023-04-24T03:58:08.964Z,1.40
2023-04-24T04:00:35.848Z,1.60
2023-04-24T04:03:02.631Z,1.40
2023-04-24T04:05:29.470Z,1.30
2023-04-24T04:07:56.250Z,1.38
2023-04-24T04:10:22.869Z,1.35
2023-04-24T04:12:49.999Z,1.48
2023-04-24T04:15:16.676Z,1.20
2023-04-24T04:17:43.270Z,1.20
2023-04-24T04:20:11.789Z,1.45
2023-04-24T04:22:38.608Z,1.23
2023-04-24T04:25:05.884Z,1.33
2023-04-24T04:27:33.254Z,1.35
2023-04-24T04:30:05.727Z,1.20
2023-04-24T04:32:34.450Z,1.15
2023-04-24T04:35:04.175Z,1.40
2023-04-24T04:37:31.242Z,1.40
2023-04-24T04:39:59.274Z,1.40
2023-04-24T04:42:26.290Z,1.10
2023-04-24T04:44:52.861Z,1.17
2023-04-24T04:47:20.788Z,1.20
2023-04-24T04:49:48.098Z,1.27
2023-04-24T04:52:14.809Z,1.10
2023-04-24T04:54:41.535Z,1.45
2023-04-24T04:57:08.212Z,1.17
2023-04-24T04:59:34.766Z,1.23
2023-04-24T05:02:01.407Z,1.30
2023-04-24T05:04:28.280Z,1.08
2023-04-24T05:06:54.989Z,1.40
2023-04-24T05:09:21.913Z,1.10
2023-04-24T05:11:48.516Z,1.10
2023-04-24T05:14:15.136Z,1.20
2023-04-24T05:16:42.147Z,1.17
2023-04-24T05:19:09.037Z,1.27
2023-04-24T05:21:35.982Z,1.02
2023-04-24T05:24:02.722Z,1.25
2023-04-24T05:26:29.308Z,1.23
2023-04-24T05:28:55.898Z,1.30
2023-04-24T05:31:22.637Z,1.23
2023-04-24T05:33:49.234Z,1.35
2023-04-24T05:36:16.133Z,1.30
2023-04-24T05:38:42.796Z,1.15
2023-04-24T05:41:09.481Z,1.45
2023-04-24T05:43:36.385Z,1.60
2023-04-24T05:46:03.339Z,1.30
2023-04-24T05:48:29.932Z,1.30
2023-04-24T05:50:56.674Z,1.35
2023-04-24T05:53:23.407Z,1.25
2023-04-24T05:55:50.211Z,1.38
2023-04-24T05:58:16.994Z,1.33
2023-04-24T06:00:45.573Z,1.15
2023-04-24T06:03:12.590Z,1.17
2023-04-24T06:05:39.635Z,1.30
2023-04-24T06:08:06.232Z,1.52
2023-04-24T06:10:32.856Z,1.50
2023-04-24T06:13:01.623Z,1.40
2023-04-24T06:15:32.147Z,1.50
2023-04-24T06:17:58.851Z,1.25
2023-04-24T06:20:26.038Z,1.50
2023-04-24T06:22:52.831Z,1.30
2023-04-24T06:25:20.282Z,1.40
2023-04-24T06:27:47.275Z,1.10
2023-04-24T06:30:13.859Z,1.50
2023-04-24T06:32:41.079Z,1.23
2023-04-24T06:35:09.215Z,1.20
2023-04-24T06:37:35.926Z,1.35
2023-04-24T06:40:02.684Z,1.20
2023-04-24T06:42:29.311Z,1.20
2023-04-24T06:44:55.829Z,1.15
2023-04-24T06:47:22.685Z,1.30
2023-04-24T06:49:49.436Z,1.08
2023-04-24T06:52:16.354Z,1.10
2023-04-24T06:54:43.161Z,1.30
2023-04-24T06:57:10.129Z,1.40
2023-04-24T06:59:36.707Z,1.52
2023-04-24T07:02:04.341Z,1.67
2023-04-24T07:04:31.457Z,1.20
2023-04-24T07:06:59.171Z,1.20
2023-04-24T07:09:26.670Z,1.30
2023-04-24T07:11:53.945Z,1.20
2023-04-24T07:14:20.803Z,1.40
2023-04-24T07:16:47.505Z,2.17
2023-04-24T07:19:14.961Z,1.23
2023-04-24T07:21:42.443Z,1.20
2023-04-24T07:24:12.021Z,0.85
2023-04-24T07:26:39.797Z,1.33
2023-04-24T07:29:06.462Z,0.90
2023-04-24T07:31:33.241Z,1.27
2023-04-24T07:33:59.965Z,0.95
2023-04-24T07:36:27.174Z,0.90
2023-04-24T07:38:54.253Z,0.90
2023-04-24T07:41:21.864Z,1.02
2023-04-24T07:43:49.468Z,1.25
2023-04-24T07:46:16.197Z,1.08
2023-04-24T07:48:42.904Z,0.85
2023-04-24T07:51:12.101Z,1.00
2023-04-24T07:53:38.710Z,0.90
2023-04-24T07:56:05.753Z,0.95
2023-04-24T07:58:32.302Z,1.13
2023-04-24T08:00:58.878Z,1.33
2023-04-24T08:03:26.015Z,0.88
2023-04-24T08:05:53.023Z,1.02
2023-04-24T08:08:22.782Z,1.45
2023-04-24T08:10:49.470Z,0.70
2023-04-24T08:13:16.148Z,1.02
2023-04-24T08:15:42.796Z,1.10
2023-04-24T08:18:09.532Z,1.23
2023-04-24T08:20:37.680Z,1.10
2023-04-24T08:23:04.292Z,1.17
2023-04-24T08:25:30.834Z,1.00
2023-04-24T08:27:57.533Z,0.90
2023-04-24T08:30:24.359Z,0.90
2023-04-24T08:32:51.001Z,1.08
2023-04-24T08:35:17.711Z,0.93
2023-04-24T08:37:44.317Z,1.23
2023-04-24T08:40:15.712Z,0.70
2023-04-24T08:42:45.735Z,0.90
2023-04-24T08:45:13.167Z,1.10
2023-04-24T08:47:40.946Z,0.80
2023-04-24T08:50:08.502Z,0.93
2023-04-24T08:52:35.622Z,0.90
2023-04-24T08:55:02.932Z,1.10
2023-04-24T08:57:30.366Z,1.08
2023-04-24T08:59:57.689Z,1.00
2023-04-24T09:02:24.565Z,0.75
2023-04-24T09:04:51.540Z,0.90
2023-04-24T09:07:19.196Z,1.05
2023-04-24T09:09:46.292Z,0.85
2023-04-24T09:12:13.273Z,1.00
2023-04-24T09:14:46.315Z,0.88
2023-04-24T09:17:13.561Z,0.57
2023-04-24T09:19:40.564Z,0.70
2023-04-24T09:22:07.900Z,0.90
2023-04-24T09:24:36.157Z,0.85
2023-04-24T09:27:03.229Z,1.00
2023-04-24T09:29:29.951Z,0.85
2023-04-24T09:31:56.989Z,0.98
2023-04-24T09:34:24.998Z,0.80
2023-04-24T09:36:52.499Z,0.85
2023-04-24T09:39:21.321Z,0.60
2023-04-24T09:41:52.448Z,0.90
2023-04-24T09:44:22.796Z,1.02
2023-04-24T09:46:56.628Z,0.80
2023-04-24T09:49:25.116Z,0.82
2023-04-24T09:51:52.355Z,0.70
2023-04-24T09:54:21.917Z,0.80
2023-04-24T09:56:49.930Z,0.77
2023-04-24T09:59:18.055Z,0.57
2023-04-24T10:01:46.049Z,1.05
2023-04-24T10:04:26.559Z,0.68
2023-04-24T10:06:54.241Z,0.95
2023-04-24T10:09:22.435Z,0.93
2023-04-24T10:11:50.852Z,0.80
2023-04-24T10:14:18.474Z,0.80
2023-04-24T10:16:47.940Z,1.00
2023-04-24T10:19:15.195Z,0.77
2023-04-24T10:21:43.814Z,0.70
2023-04-24T10:24:11.225Z,1.00
2023-04-24T10:26:38.498Z,0.65
2023-04-24T10:29:06.132Z,0.73
2023-04-24T10:31:33.566Z,0.77
2023-04-24T10:34:00.978Z,0.80
2023-04-24T10:36:28.613Z,0.85
2023-04-24T10:38:57.494Z,0.82
2023-04-24T10:41:26.713Z,0.77
2023-04-24T10:44:10.007Z,0.75
2023-04-24T10:46:36.993Z,0.90
2023-04-24T10:49:09.963Z,1.10
2023-04-24T10:51:49.615Z,1.08
2023-04-24T10:54:26.465Z,1.35
2023-04-24T10:56:53.304Z,0.95
2023-04-24T10:59:26.560Z,0.82
2023-04-24T11:01:56.537Z,1.00
2023-04-24T11:04:33.109Z,0.70
2023-04-24T11:06:59.914Z,0.70
2023-04-24T11:09:31.076Z,1.10
2023-04-24T11:12:04.369Z,1.08
2023-04-24T11:14:30.948Z,1.20
2023-04-24T11:16:57.896Z,0.70
2023-04-24T11:19:25.572Z,1.08
2023-04-24T14:43:53.029Z,2.00
2023-04-24T14:46:19.599Z,1.80
2023-04-24T14:48:46.238Z,2.50
2023-04-24T14:51:13.232Z,3.13
2023-04-24T14:53:39.795Z,2.95
2023-04-24T14:56:06.551Z,3.55
2023-04-24T14:58:33.170Z,2.65
2023-04-24T15:00:59.716Z,9.30
2023-04-24T15:03:28.138Z,2.85
2023-04-24T15:05:54.902Z,1.77
2023-04-24T15:08:21.733Z,1.65
2023-04-24T15:10:48.410Z,1.50
2023-04-24T15:13:15.071Z,1.33
2023-04-24T15:15:41.750Z,1.80
2023-04-24T15:18:09.452Z,1.67
2023-04-24T15:20:38.567Z,1.83
2023-04-24T15:23:05.851Z,1.48
2023-04-24T15:25:32.729Z,1.63
2023-04-24T15:27:59.865Z,1.80
2023-04-24T15:30:26.525Z,1.60
2023-04-24T15:32:53.135Z,1.50
2023-04-24T15:35:20.164Z,2.17
2023-04-24T15:37:49.269Z,2.67
2023-04-24T15:40:16.880Z,1.63
2023-04-24T15:42:43.845Z,1.40
2023-04-24T15:45:10.986Z,1.48
2023-04-24T15:47:37.523Z,1.23
2023-04-24T15:50:04.904Z,1.73
2023-04-24T15:52:31.445Z,1.90
2023-04-24T15:54:57.969Z,1.25
2023-04-24T15:57:24.525Z,1.48
2023-04-24T15:59:51.181Z,1.30
2023-04-24T16:02:20.877Z,1.08
2023-04-24T16:04:48.491Z,1.55
2023-04-24T16:07:15.972Z,1.40
2023-04-24T16:09:42.634Z,1.08
2023-04-24T16:12:10.591Z,1.15
2023-04-24T16:14:37.644Z,1.05
2023-04-24T16:17:04.335Z,1.15
2023-04-24T16:19:31.197Z,1.33
2023-04-24T16:21:58.172Z,1.10
2023-04-24T16:24:24.805Z,1.00
2023-04-24T16:26:52.230Z,1.48
2023-04-24T16:29:19.438Z,1.10
2023-04-24T16:31:46.101Z,1.30
2023-04-24T16:34:12.648Z,1.38
2023-04-24T16:36:39.183Z,1.63
2023-04-24T16:39:05.883Z,1.60
2023-04-24T16:41:32.740Z,1.40
2023-04-24T16:43:59.450Z,1.08
2023-04-24T16:46:26.325Z,1.30
2023-04-24T16:48:52.866Z,1.15
2023-04-24T16:51:19.543Z,1.42
2023-04-24T16:53:46.020Z,0.80
2023-04-24T16:56:13.983Z,1.10
2023-04-24T16:58:40.768Z,1.23
2023-04-24T17:01:07.347Z,1.10
2023-04-24T17:03:34.029Z,1.25
2023-04-24T17:06:00.867Z,0.93
2023-04-24T17:08:27.382Z,1.00
2023-04-24T17:10:53.887Z,1.10
2023-04-24T17:13:20.470Z,1.25
2023-04-24T17:15:46.973Z,1.55
2023-04-24T17:18:13.571Z,1.05
2023-04-24T17:20:40.309Z,1.20
2023-04-24T17:23:07.343Z,1.30
2023-04-24T17:25:33.866Z,1.08
2023-04-24T17:28:00.422Z,1.25
2023-04-24T17:30:27.117Z,1.20
2023-04-24T17:32:53.679Z,0.80
2023-04-24T17:35:21.496Z,1.05
2023-04-24T17:37:49.362Z,0.93
2023-04-24T17:40:15.919Z,0.90
2023-04-24T17:42:42.520Z,1.00
2023-04-24T17:45:09.471Z,0.93
2023-04-24T17:47:36.954Z,1.00
2023-04-24T17:50:03.698Z,1.10
2023-04-24T17:52:31.253Z,1.35
2023-04-24T17:54:57.882Z,1.10
2023-04-24T17:57:24.542Z,1.70
2023-04-24T17:59:51.886Z,1.23
2023-04-24T18:02:18.551Z,1.23
2023-04-24T18:04:45.340Z,0.70
2023-04-24T18:07:12.146Z,0.82
2023-04-24T18:09:38.722Z,0.90
2023-04-24T18:12:05.570Z,1.20
2023-04-24T18:14:32.261Z,1.00
2023-04-24T18:16:58.830Z,1.02
2023-04-24T18:19:25.438Z,1.60
2023-04-24T18:21:52.058Z,1.45
2023-04-24T18:24:19.727Z,1.05
2023-04-24T18:26:46.321Z,1.23
2023-04-24T18:29:13.121Z,1.33
2023-04-24T18:31:39.724Z,0.60
2023-04-24T18:34:06.375Z,0.90
2023-04-24T18:36:33.281Z,1.10
2023-04-24T18:38:59.849Z,1.00
2023-04-24T18:41:26.409Z,0.88
2023-04-24T18:43:53.064Z,0.77
2023-04-24T18:46:20.451Z,1.10
2023-04-24T18:48:47.231Z,0.80
2023-04-24T18:51:14.084Z,1.00
2023-04-24T18:53:40.695Z,0.82
2023-04-24T18:56:07.263Z,0.90
2023-04-24T18:58:33.812Z,1.17
2023-04-24T19:01:00.641Z,0.93
2023-04-24T19:03:28.267Z,1.10
2023-04-24T19:05:54.946Z,1.05
2023-04-24T19:08:21.776Z,1.00
2023-04-24T19:10:48.252Z,1.05
2023-04-24T19:13:15.080Z,1.10
2023-04-24T19:15:41.638Z,1.00
2023-04-24T19:18:08.264Z,0.70
2023-04-24T19:20:34.874Z,1.02
2023-04-24T19:23:01.597Z,0.90
2023-04-24T19:25:28.922Z,0.55
2023-04-24T19:27:55.503Z,0.88
2023-04-24T19:30:22.303Z,0.77
2023-04-24T19:32:48.897Z,0.88
2023-04-24T19:35:15.562Z,0.70
2023-04-24T19:37:42.082Z,1.13
2023-04-24T19:40:08.702Z,0.98
2023-04-24T19:42:43.314Z,1.10
2023-04-24T19:45:11.851Z,1.05
2023-04-24T19:47:38.760Z,1.00
2023-04-24T19:50:05.682Z,0.93
2023-04-24T19:52:32.325Z,1.08
2023-04-24T19:54:59.225Z,0.70
2023-04-24T19:57:25.778Z,1.10
2023-04-24T19:59:52.320Z,0.85
2023-04-24T20:02:19.018Z,0.98
2023-04-24T20:04:46.109Z,0.85
2023-04-24T20:07:12.940Z,0.70
2023-04-24T20:09:39.548Z,0.82
2023-04-24T20:12:06.108Z,1.05
2023-04-24T20:14:33.066Z,1.00
2023-04-24T20:16:59.579Z,0.90
2023-04-24T20:19:26.326Z,0.82
2023-04-24T20:21:53.529Z,0.93
2023-04-24T20:24:20.308Z,0.90
2023-04-24T20:26:46.890Z,1.00
2023-04-24T20:29:13.994Z,0.88
2023-04-24T20:31:41.265Z,0.70
2023-04-24T20:34:08.153Z,0.77
2023-04-24T20:36:35.148Z,1.23
2023-04-24T20:39:02.399Z,0.88
2023-04-24T20:41:30.354Z,1.20
2023-04-24T20:43:56.983Z,1.05
2023-04-24T20:46:23.682Z,0.93
2023-04-24T20:48:50.897Z,0.65
2023-04-24T20:51:17.533Z,0.95
2023-04-24T20:53:44.237Z,0.90
2023-04-24T20:56:11.546Z,1.30
2023-04-24T20:58:38.360Z,1.02
2023-04-24T21:01:05.056Z,0.90
2023-04-24T21:03:31.671Z,1.02
2023-04-24T21:05:58.259Z,1.10
2023-04-24T21:08:24.826Z,1.00
2023-04-24T21:10:52.117Z,1.27
2023-04-24T21:13:19.133Z,0.90
2023-04-24T21:15:45.875Z,1.10
2023-04-24T21:18:12.518Z,0.98
2023-04-24T21:20:39.054Z,0.90
2023-04-24T21:23:05.983Z,0.90
2023-04-24T21:25:32.765Z,1.13
2023-04-24T21:27:59.899Z,0.90
2023-04-24T21:30:26.641Z,0.20
2023-04-24T21:32:53.434Z,0.10
2023-04-24T21:35:19.928Z,0.20
2023-04-24T21:37:47.228Z,0.20
2023-04-24T21:40:15.939Z,0.30
2023-04-24T21:42:42.858Z,0.20
2023-04-24T21:45:09.776Z,0.13
2023-04-24T21:47:36.400Z,0.20
2023-04-24T21:50:04.474Z,0.20
2023-04-24T21:52:31.145Z,0.20
2023-04-24T21:54:57.630Z,0.20
2023-04-24T21:57:24.170Z,0.20
2023-04-24T21:59:51.624Z,0.28
2023-04-24T22:02:18.328Z,0.10
2023-04-24T22:04:45.329Z,0.30
2023-04-24T22:07:12.246Z,0.20
2023-04-24T22:09:38.913Z,0.25
2023-04-24T22:12:05.457Z,0.20
2023-04-24T22:14:32.023Z,0.20
2023-04-24T22:16:58.627Z,0.22
2023-04-24T22:19:26.400Z,0.10
2023-04-24T22:21:52.909Z,0.30
2023-04-24T22:24:19.548Z,0.15
2023-04-24T22:26:46.233Z,0.10
2023-04-24T22:29:13.018Z,0.28
2023-04-24T22:31:39.591Z,0.22
2023-04-24T22:34:06.220Z,0.20
2023-04-24T22:36:34.015Z,0.10
2023-04-24T22:39:00.721Z,0.20
2023-04-24T22:41:27.184Z,0.30
2023-04-24T22:43:53.756Z,0.30
2023-04-24T22:46:20.376Z,0.20
2023-04-24T22:48:49.195Z,0.20
2023-04-24T22:51:17.461Z,0.20
2023-04-24T22:53:43.898Z,0.10
2023-04-24T22:56:10.521Z,0.20
2023-04-24T22:58:36.950Z,0.20
2023-04-24T23:01:04.245Z,0.20
2023-04-24T23:03:31.703Z,0.20
2023-04-24T23:05:58.348Z,0.20
2023-04-24T23:08:24.808Z,0.10
2023-04-24T23:10:51.311Z,0.30
2023-04-24T23:13:17.977Z,0.20
2023-04-24T23:15:44.646Z,0.30
2023-04-24T23:18:11.668Z,0.28
2023-04-24T23:20:39.020Z,0.20
2023-04-24T23:23:05.704Z,0.20
2023-04-24T23:25:35.208Z,0.20
2023-04-24T23:28:01.782Z,0.17
2023-04-24T23:30:29.838Z,0.20
2023-04-24T23:32:56.526Z,0.20
2023-04-24T23:35:23.208Z,0.30
2023-04-24T23:37:49.930Z,0.20
2023-04-24T23:40:16.392Z,0.20
2023-04-24T23:42:42.909Z,0.25
2023-04-24T23:45:11.098Z,0.10
2023-04-24T23:47:37.891Z,0.20
2023-04-24T23:50:04.841Z,0.20
2023-04-24T23:52:31.557Z,0.20
2023-04-24T23:54:58.209Z,0.20
2023-04-24T23:57:24.792Z,0.25
2023-04-24T23:59:51.369Z,0.30
